KJDN

Jordan Airport

Jordan, Montana, USA
METAR KJDN 141248Z AUTO 00000KT 08/04 A3006 RMK AO1 SLP178 T00830039
Observed Flight Rules
Aug-14 @ 12:48 UTC (54 minutes ago)
Temperatures Readings
Current 8°C / 46°F
Dewpoint 4°C / 39°F
Humidity 76%
Altimeter 30.06" Hg
Pressure 1017.8 hPa
Elevation 801
METAR KJDN 141248Z AUTO 00000KT 08/04 A3006 RMK AO1 SLP178 T00830039
Observed Flight Rules
Aug-14 @ 12:48 UTC
(54 minutes ago)
Temperature Dewpoint
8°C / 46°F 4°C / 39°F
Humidity Altimeter Pressure
76% 30.06" Hg 1017.8 hPa